Time,TemperatureF,DewpointF,PressureIn,WindDirection,WindDirectionDegrees,WindSpeedMPH,WindSpeedGustMPH,Humidity,HourlyPrecipIn,Conditions,Clouds,dailyrainin,SoftwareType,DateUTC
2013-06-05 00:02:00,-999.0,-99.9,30.04,North,0,0.0,-999.0,-999,-99.99,,,-99.99,,2013-06-05 05:02:00,
2013-06-05 00:12:00,-999.0,-99.9,30.04,North,0,0.0,-999.0,-999,-99.99,,,-99.99,,2013-06-05 05:12:00,
2013-06-05 00:23:00,-999.0,-99.9,30.03,North,0,0.0,-999.0,-999,-99.99,,,-99.99,,2013-06-05 05:23:00,
2013-06-05 00:32:00,-999.0,-99.9,30.03,North,0,0.0,-999.0,-999,-99.99,,,-99.99,,2013-06-05 05:32:00,
2013-06-05 00:42:00,-999.0,-99.9,30.04,North,0,0.0,-999.0,-999,-99.99,,,-99.99,,2013-06-05 05:42:00,
2013-06-05 00:53:00,-999.0,-99.9,30.04,North,0,0.0,-999.0,-999,-99.99,,,-99.99,,2013-06-05 05:53:00,
2013-06-05 01:02:00,-999.0,-99.9,30.03,North,0,0.0,-999.0,-999,-99.99,,,-99.99,,2013-06-05 06:02:00,
2013-06-05 01:12:00,-999.0,-99.9,30.03,North,0,0.0,-999.0,-999,-99.99,,,-99.99,,2013-06-05 06:12:00,
2013-06-05 01:22:00,-999.0,-99.9,30.03,North,0,0.0,-999.0,-999,-99.99,,,-99.99,,2013-06-05 06:22:00,
2013-06-05 01:32:00,-999.0,-99.9,30.03,North,0,0.0,-999.0,-999,-99.99,,,-99.99,,2013-06-05 06:32:00,
2013-06-05 01:42:00,-999.0,-99.9,30.03,North,0,0.0,-999.0,-999,-99.99,,,-99.99,,2013-06-05 06:42:00,
2013-06-05 01:52:00,-999.0,-99.9,30.04,SE,130,3.0,-999.0,-999,-99.99,,,-99.99,,2013-06-05 06:52:00,
2013-06-05 02:02:00,-999.0,-99.9,30.04,North,0,0.0,-999.0,-999,-99.99,,,-99.99,,2013-06-05 07:02:00,
2013-06-05 02:12:00,-999.0,-99.9,30.04,North,0,0.0,-999.0,-999,-99.99,,,-99.99,,2013-06-05 07:12:00,
2013-06-05 02:22:00,-999.0,-99.9,30.04,SSE,150,3.0,-999.0,-999,-99.99,,,-99.99,,2013-06-05 07:22:00,
2013-06-05 02:32:00,-999.0,-99.9,30.04,SE,130,3.0,-999.0,-999,-99.99,,,-99.99,,2013-06-05 07:32:00,
2013-06-05 02:42:00,-999.0,-99.9,30.03,ESE,120,5.0,-999.0,-999,-99.99,,,-99.99,,2013-06-05 07:42:00,
2013-06-05 02:52:00,-999.0,-99.9,30.01,ESE,120,5.0,-999.0,-999,-99.99,,,-99.99,,2013-06-05 07:52:00,
2013-06-05 03:02:00,-999.0,-99.9,30.00,ESE,110,5.0,-999.0,-999,-99.99,,,-99.99,,2013-06-05 08:02:00,
2013-06-05 03:12:00,-999.0,-99.9,30.00,ESE,110,5.0,-999.0,-999,-99.99,,,-99.99,,2013-06-05 08:12:00,
2013-06-05 03:22:00,-999.0,-99.9,30.00,East,100,3.0,-999.0,-999,-99.99,,,-99.99,,2013-06-05 08:22:00,
2013-06-05 03:32:00,-999.0,-99.9,30.01,North,0,0.0,-999.0,-999,-99.99,,,-99.99,,2013-06-05 08:32:00,
2013-06-05 03:42:00,-999.0,-99.9,30.01,East,100,3.0,-999.0,-999,-99.99,,,-99.99,,2013-06-05 08:42:00,
2013-06-05 03:52:00,-999.0,-99.9,30.03,North,0,0.0,-999.0,-999,-99.99,,,-99.99,,2013-06-05 08:52:00,
2013-06-05 04:02:00,-999.0,-99.9,30.02,North,0,0.0,-999.0,-999,-99.99,,,-99.99,,2013-06-05 09:02:00,
2013-06-05 04:12:00,-999.0,-99.9,30.02,North,0,0.0,-999.0,-999,-99.99,,,-99.99,,2013-06-05 09:12:00,
2013-06-05 04:22:00,-999.0,-99.9,30.03,North,0,0.0,-999.0,-999,-99.99,,,-99.99,,2013-06-05 09:22:00,
2013-06-05 04:33:00,-999.0,-99.9,30.03,ENE,70,3.0,-999.0,-999,-99.99,,,-99.99,,2013-06-05 09:33:00,
2013-06-05 04:43:00,-999.0,-99.9,30.02,East,90,3.0,-999.0,-999,-99.99,,,-99.99,,2013-06-05 09:43:00,
2013-06-05 04:53:00,-999.0,-99.9,30.03,East,90,3.0,-999.0,-999,-99.99,,,-99.99,,2013-06-05 09:53:00,
2013-06-05 05:03:00,-999.0,-99.9,30.03,East,90,3.0,-999.0,-999,-99.99,,,-99.99,,2013-06-05 10:03:00,
2013-06-05 05:13:00,-999.0,-99.9,30.03,East,90,3.0,-999.0,-999,-99.99,,,-99.99,,2013-06-05 10:13:00,
2013-06-05 05:23:00,-999.0,-99.9,30.03,East,100,3.0,-999.0,-999,-99.99,,,-99.99,,2013-06-05 10:23:00,
2013-06-05 05:33:00,-999.0,-99.9,30.02,East,100,3.0,-999.0,-999,-99.99,,,-99.99,,2013-06-05 10:33:00,
2013-06-05 05:43:00,-999.0,-99.9,30.02,ESE,110,5.0,-999.0,-999,-99.99,,,-99.99,,2013-06-05 10:43:00,
2013-06-05 05:53:00,-999.0,-99.9,30.02,East,100,5.0,-999.0,-999,-99.99,,,-99.99,,2013-06-05 10:53:00,
2013-06-05 06:02:00,-999.0,-99.9,30.02,East,100,5.0,-999.0,-999,-99.99,,,-99.99,,2013-06-05 11:02:00,
2013-06-05 06:13:00,-999.0,-99.9,30.02,East,100,5.0,-999.0,-999,-99.99,,,-99.99,,2013-06-05 11:13:00,
2013-06-05 06:22:00,-999.0,-99.9,30.01,ESE,110,5.0,-999.0,-999,-99.99,,,-99.99,,2013-06-05 11:22:00,
2013-06-05 06:33:00,-999.0,-99.9,30.01,ESE,110,5.0,-999.0,-999,-99.99,,,-99.99,,2013-06-05 11:33:00,
2013-06-05 06:42:00,-999.0,-99.9,30.01,East,100,5.0,-999.0,-999,-99.99,,,-99.99,,2013-06-05 11:42:00,
2013-06-05 06:52:00,-999.0,-99.9,30.01,East,100,3.0,-999.0,-999,-99.99,,,-99.99,,2013-06-05 11:52:00,
2013-06-05 07:02:00,-999.0,-99.9,30.01,East,90,3.0,-999.0,-999,-99.99,,,-99.99,,2013-06-05 12:02:00,
2013-06-05 07:12:00,-999.0,-99.9,30.01,East,90,3.0,-999.0,-999,-99.99,,,-99.99,,2013-06-05 12:12:00,
2013-06-05 07:22:00,-999.0,-99.9,30.00,ESE,110,5.0,-999.0,-999,-99.99,,,-99.99,,2013-06-05 12:22:00,
2013-06-05 07:32:00,-999.0,-99.9,29.99,ESE,120,6.0,-999.0,-999,-99.99,,,-99.99,,2013-06-05 12:32:00,
2013-06-05 07:44:00,-999.0,-99.9,29.98,ESE,120,6.0,-999.0,-999,-99.99,,,-99.99,,2013-06-05 12:44:00,
2013-06-05 07:52:00,-999.0,-99.9,29.97,ESE,120,6.0,-999.0,-999,-99.99,,,-99.99,,2013-06-05 12:52:00,
2013-06-05 08:02:00,-999.0,-99.9,29.97,SE,130,6.0,-999.0,-999,-99.99,,,-99.99,,2013-06-05 13:02:00,
2013-06-05 08:12:00,-999.0,-99.9,29.97,SE,130,6.0,-999.0,-999,-99.99,,,-99.99,,2013-06-05 13:12:00,
2013-06-05 08:22:00,-999.0,-99.9,29.97,SE,130,6.0,-999.0,-999,-99.99,,,-99.99,,2013-06-05 13:22:00,
2013-06-05 08:33:00,-999.0,-99.9,29.98,SE,140,3.0,-999.0,-999,-99.99,,,-99.99,,2013-06-05 13:33:00,
2013-06-05 08:42:00,-999.0,-99.9,29.98,SSE,150,5.0,-999.0,-999,-99.99,,,-99.99,,2013-06-05 13:42:00,
2013-06-05 08:53:00,-999.0,-99.9,29.98,SSE,160,7.0,-999.0,-999,-99.99,,,-99.99,,2013-06-05 13:53:00,
2013-06-05 09:02:00,-999.0,-99.9,29.99,SSE,150,5.0,-999.0,-999,-99.99,,,-99.99,,2013-06-05 14:02:00,
2013-06-05 09:12:00,-999.0,-99.9,29.99,SSE,150,5.0,-999.0,-999,-99.99,,,-99.99,,2013-06-05 14:12:00,
2013-06-05 09:22:00,-999.0,-99.9,29.99,SSE,160,5.0,-999.0,-999,-99.99,,,-99.99,,2013-06-05 14:22:00,
2013-06-05 09:32:00,-999.0,-99.9,29.99,SSE,160,5.0,-999.0,-999,-99.99,,,-99.99,,2013-06-05 14:32:00,
2013-06-05 09:42:00,-999.0,-99.9,30.00,SSE,160,5.0,-999.0,-999,-99.99,,,-99.99,,2013-06-05 14:42:00,
2013-06-05 09:52:00,-999.0,-99.9,30.00,South,180,3.0,-999.0,-999,-99.99,,,-99.99,,2013-06-05 14:52:00,
2013-06-05 10:03:00,-999.0,-99.9,30.00,North,0,0.0,-999.0,-999,-99.99,,,-99.99,,2013-06-05 15:03:00,
2013-06-05 10:12:00,-999.0,-99.9,30.00,North,0,0.0,-999.0,-999,-99.99,,,-99.99,,2013-06-05 15:12:00,
2013-06-05 10:23:00,-999.0,-99.9,30.00,North,0,0.0,-999.0,-999,-99.99,,,-99.99,,2013-06-05 15:23:00,
2013-06-05 10:33:00,-999.0,-99.9,30.00,South,170,3.0,-999.0,-999,-99.99,,,-99.99,,2013-06-05 15:33:00,
2013-06-05 10:43:00,-999.0,-99.9,30.00,North,0,0.0,-999.0,-999,-99.99,,,-99.99,,2013-06-05 15:43:00,
2013-06-05 10:53:00,-999.0,-99.9,30.00,South,170,3.0,-999.0,-999,-99.99,,,-99.99,,2013-06-05 15:53:00,
2013-06-05 11:04:00,-999.0,-99.9,30.00,South,170,3.0,-999.0,-999,-99.99,,,-99.99,,2013-06-05 16:04:00,
2013-06-05 11:13:00,-999.0,-99.9,30.00,South,170,3.0,-999.0,-999,-99.99,,,-99.99,,2013-06-05 16:13:00,
2013-06-05 11:22:00,75.0,59.0,29.99,SSW,200,3.0,-999.0,57,0.05,,,-99.99,,2013-06-05 16:22:00,
2013-06-05 11:32:00,75.0,59.0,30.00,South,190,5.0,-999.0,57,0.05,,,-99.99,,2013-06-05 16:32:00,
2013-06-05 11:42:00,75.0,59.0,30.00,SW,230,5.0,-999.0,57,0.05,,,-99.99,,2013-06-05 16:42:00,
2013-06-05 11:54:00,75.0,59.0,29.99,SSW,210,3.0,-999.0,57,0.05,,,-99.99,,2013-06-05 16:54:00,
2013-06-05 12:02:00,75.0,59.0,29.99,SSW,200,3.0,-999.0,57,0.05,,,-99.99,,2013-06-05 17:02:00,
2013-06-05 12:12:00,75.0,59.0,29.99,SSW,200,3.0,-999.0,57,0.05,,,-99.99,,2013-06-05 17:12:00,
2013-06-05 12:22:00,75.0,59.0,29.99,SW,220,6.0,-999.0,57,-99.99,,,-99.99,,2013-06-05 17:22:00,
2013-06-05 12:32:00,75.0,59.0,29.98,SSE,160,6.0,-999.0,57,-99.99,,,-99.99,,2013-06-05 17:32:00,
2013-06-05 12:42:00,77.0,59.0,29.98,South,180,7.0,-999.0,53,-99.99,,,-99.99,,2013-06-05 17:42:00,
2013-06-05 12:52:00,77.0,59.0,29.99,South,180,6.0,-999.0,53,-99.99,,,-99.99,,2013-06-05 17:52:00,
2013-06-05 13:02:00,77.0,59.0,29.99,South,180,3.0,-999.0,53,-99.99,,,-99.99,,2013-06-05 18:02:00,
2013-06-05 13:12:00,77.0,59.0,29.99,South,180,3.0,-999.0,53,-99.99,,,-99.99,,2013-06-05 18:12:00,
2013-06-05 13:21:00,77.0,59.0,29.97,South,190,5.0,-999.0,53,-99.99,,,-99.99,,2013-06-05 18:21:00,
2013-06-05 13:22:00,77.0,59.0,29.98,South,170,3.0,-999.0,53,-99.99,,,-99.99,,2013-06-05 18:22:00,
2013-06-05 13:32:00,77.0,59.0,29.97,WSW,240,5.0,-999.0,53,-99.99,,,-99.99,,2013-06-05 18:32:00,
2013-06-05 13:42:00,77.0,59.0,29.97,South,190,5.0,-999.0,53,-99.99,,,-99.99,,2013-06-05 18:42:00,
2013-06-05 13:52:00,77.0,59.0,29.97,South,190,5.0,-999.0,53,-99.99,,,-99.99,,2013-06-05 18:52:00,
2013-06-05 14:02:00,77.0,59.0,29.97,South,190,5.0,-999.0,53,-99.99,,,-99.99,,2013-06-05 19:02:00,
2013-06-05 14:12:00,77.0,59.0,29.97,South,190,5.0,-999.0,53,-99.99,,,-99.99,,2013-06-05 19:12:00,
2013-06-05 20:02:00,72.0,63.0,29.90,North,0,0.0,-999.0,73,-99.99,,,-99.99,,2013-06-06 01:02:00,
2013-06-05 20:12:00,72.0,63.0,29.90,North,0,0.0,-999.0,73,-99.99,,,-99.99,,2013-06-06 01:12:00,
2013-06-05 20:22:00,72.0,63.0,29.90,North,0,0.0,-999.0,73,-99.99,,,-99.99,,2013-06-06 01:22:00,
2013-06-05 20:32:00,70.0,64.0,29.91,North,0,0.0,-999.0,82,-99.99,,,-99.99,,2013-06-06 01:32:00,
2013-06-05 20:42:00,70.0,63.0,29.90,North,0,0.0,-999.0,77,-99.99,,,-99.99,,2013-06-06 01:42:00,
2013-06-05 20:53:00,70.0,63.0,29.90,North,0,0.0,-999.0,77,-99.99,,,-99.99,,2013-06-06 01:53:00,
2013-06-05 21:02:00,68.0,64.0,29.90,North,0,0.0,-999.0,88,-99.99,,,-99.99,,2013-06-06 02:02:00,
2013-06-05 21:12:00,68.0,64.0,29.90,North,0,0.0,-999.0,88,-99.99,,,-99.99,,2013-06-06 02:12:00,
2013-06-05 21:22:00,70.0,63.0,29.90,North,0,0.0,-999.0,77,-99.99,,,-99.99,,2013-06-06 02:22:00,
2013-06-05 21:32:00,70.0,63.0,29.91,North,0,0.0,-999.0,77,-99.99,,,-99.99,,2013-06-06 02:32:00,
2013-06-05 21:42:00,70.0,63.0,29.91,North,0,0.0,-999.0,77,-99.99,,,-99.99,,2013-06-06 02:42:00,
2013-06-05 21:52:00,70.0,63.0,29.91,North,0,0.0,-999.0,77,-99.99,,,-99.99,,2013-06-06 02:52:00,
2013-06-05 22:02:00,68.0,64.0,29.92,North,0,0.0,-999.0,88,-99.99,,,-99.99,,2013-06-06 03:02:00,
2013-06-05 22:12:00,68.0,64.0,29.92,North,0,0.0,-999.0,88,-99.99,,,-99.99,,2013-06-06 03:12:00,
2013-06-05 22:22:00,68.0,63.0,29.92,North,0,0.0,-999.0,82,-99.99,,,-99.99,,2013-06-06 03:22:00,
2013-06-05 22:33:00,68.0,64.0,29.93,North,0,0.0,-999.0,88,-99.99,,,-99.99,,2013-06-06 03:33:00,
2013-06-05 22:43:00,68.0,64.0,29.93,NW,310,6.0,-999.0,88,-99.99,,,-99.99,,2013-06-06 03:43:00,
2013-06-05 22:53:00,70.0,64.0,29.93,NW,310,6.0,-999.0,82,-99.99,,,-99.99,,2013-06-06 03:53:00,
2013-06-05 23:03:00,70.0,64.0,29.93,NNW,330,6.0,-999.0,82,-99.99,,,-99.99,,2013-06-06 04:03:00,
2013-06-05 23:13:00,70.0,64.0,29.93,NNW,330,6.0,-999.0,82,-99.99,,,-99.99,,2013-06-06 04:13:00,
2013-06-05 23:23:00,68.0,63.0,29.93,NNW,340,5.0,-999.0,82,-99.99,,,-99.99,,2013-06-06 04:23:00,
2013-06-05 23:33:00,68.0,63.0,29.93,NW,320,7.0,-999.0,82,-99.99,,,-99.99,,2013-06-06 04:33:00,
2013-06-05 23:42:00,68.0,63.0,29.93,NNW,330,5.0,-999.0,82,-99.99,,,-99.99,,2013-06-06 04:42:00,
2013-06-05 23:53:00,68.0,63.0,29.93,NW,320,7.0,-999.0,82,-99.99,,,-99.99,,2013-06-06 04:53:00,